sensor_id;sensor_type;location;lat;lon;timestamp;P1;durP1;ratioP1;P2;durP2;ratioP2
45887;SDS011;31595;51.418;7.572;2023-02-01T00:00:23;23.38;;;14.50;;
45887;SDS011;31595;51.418;7.572;2023-02-01T00:02:51;24.65;;;13.15;;
45887;SDS011;31595;51.418;7.572;2023-02-01T00:05:21;19.95;;;12.02;;
45887;SDS011;31595;51.418;7.572;2023-02-01T00:07:48;23.95;;;12.23;;
45887;SDS011;31595;51.418;7.572;2023-02-01T00:10:16;22.50;;;12.10;;
45887;SDS011;31595;51.418;7.572;2023-02-01T00:12:44;24.10;;;11.93;;
45887;SDS011;31595;51.418;7.572;2023-02-01T00:15:11;20.38;;;10.73;;
45887;SDS011;31595;51.418;7.572;2023-02-01T00:20:11;19.08;;;10.18;;
45887;SDS011;31595;51.418;7.572;2023-02-01T00:22:38;19.58;;;9.68;;
45887;SDS011;31595;51.418;7.572;2023-02-01T00:25:05;20.83;;;9.55;;
45887;SDS011;31595;51.418;7.572;2023-02-01T00:27:35;15.63;;;8.30;;
45887;SDS011;31595;51.418;7.572;2023-02-01T00:30:03;17.80;;;8.23;;
45887;SDS011;31595;51.418;7.572;2023-02-01T00:32:31;16.70;;;7.97;;
45887;SDS011;31595;51.418;7.572;2023-02-01T00:34:59;15.10;;;7.20;;
45887;SDS011;31595;51.418;7.572;2023-02-01T00:37:27;15.82;;;6.88;;
45887;SDS011;31595;51.418;7.572;2023-02-01T00:39:54;16.80;;;7.43;;
45887;SDS011;31595;51.418;7.572;2023-02-01T00:42:21;18.98;;;6.72;;
45887;SDS011;31595;51.418;7.572;2023-02-01T00:44:49;12.27;;;6.53;;
45887;SDS011;31595;51.418;7.572;2023-02-01T00:47:16;11.73;;;5.60;;
45887;SDS011;31595;51.418;7.572;2023-02-01T00:49:45;18.00;;;5.07;;
45887;SDS011;31595;51.418;7.572;2023-02-01T00:52:13;13.52;;;5.47;;
45887;SDS011;31595;51.418;7.572;2023-02-01T00:54:41;15.35;;;4.88;;
45887;SDS011;31595;51.418;7.572;2023-02-01T00:57:08;16.00;;;5.25;;
45887;SDS011;31595;51.418;7.572;2023-02-01T00:59:35;10.73;;;4.43;;
45887;SDS011;31595;51.418;7.572;2023-02-01T01:02:02;14.93;;;5.00;;
45887;SDS011;31595;51.418;7.572;2023-02-01T01:04:32;9.63;;;4.68;;
45887;SDS011;31595;51.418;7.572;2023-02-01T01:06:59;12.73;;;4.47;;
45887;SDS011;31595;51.418;7.572;2023-02-01T01:09:28;11.95;;;4.88;;
45887;SDS011;31595;51.418;7.572;2023-02-01T01:11:55;10.15;;;4.28;;
45887;SDS011;31595;51.418;7.572;2023-02-01T01:14:22;10.82;;;4.10;;
45887;SDS011;31595;51.418;7.572;2023-02-01T01:16:49;14.90;;;4.15;;
45887;SDS011;31595;51.418;7.572;2023-02-01T01:19:17;10.88;;;4.13;;
45887;SDS011;31595;51.418;7.572;2023-02-01T01:21:47;13.40;;;4.65;;
45887;SDS011;31595;51.418;7.572;2023-02-01T01:24:14;15.10;;;4.32;;
45887;SDS011;31595;51.418;7.572;2023-02-01T01:26:43;12.77;;;3.70;;
45887;SDS011;31595;51.418;7.572;2023-02-01T01:29:10;15.05;;;4.75;;
45887;SDS011;31595;51.418;7.572;2023-02-01T01:31:37;14.40;;;4.90;;
45887;SDS011;31595;51.418;7.572;2023-02-01T01:34:05;13.15;;;3.95;;
45887;SDS011;31595;51.418;7.572;2023-02-01T01:36:35;14.18;;;3.80;;
45887;SDS011;31595;51.418;7.572;2023-02-01T01:39:02;12.25;;;3.75;;
45887;SDS011;31595;51.418;7.572;2023-02-01T01:41:30;11.57;;;5.03;;
45887;SDS011;31595;51.418;7.572;2023-02-01T01:44:00;10.75;;;3.58;;
45887;SDS011;31595;51.418;7.572;2023-02-01T01:46:30;11.88;;;3.80;;
45887;SDS011;31595;51.418;7.572;2023-02-01T01:49:01;17.17;;;4.60;;
45887;SDS011;31595;51.418;7.572;2023-02-01T01:51:36;14.13;;;4.63;;
45887;SDS011;31595;51.418;7.572;2023-02-01T01:54:08;16.30;;;5.03;;
45887;SDS011;31595;51.418;7.572;2023-02-01T01:56:38;12.23;;;4.72;;
45887;SDS011;31595;51.418;7.572;2023-02-01T01:59:08;14.27;;;4.45;;
45887;SDS011;31595;51.418;7.572;2023-02-01T02:01:36;13.03;;;5.30;;
45887;SDS011;31595;51.418;7.572;2023-02-01T02:04:03;12.45;;;5.18;;
45887;SDS011;31595;51.418;7.572;2023-02-01T02:06:37;10.80;;;4.50;;
45887;SDS011;31595;51.418;7.572;2023-02-01T02:09:11;11.35;;;5.03;;
45887;SDS011;31595;51.418;7.572;2023-02-01T02:11:38;18.48;;;5.00;;
45887;SDS011;31595;51.418;7.572;2023-02-01T02:14:06;16.13;;;4.72;;
45887;SDS011;31595;51.418;7.572;2023-02-01T02:16:43;14.63;;;4.90;;
45887;SDS011;31595;51.418;7.572;2023-02-01T02:19:32;19.30;;;5.03;;
45887;SDS011;31595;51.418;7.572;2023-02-01T02:29:07;12.05;;;5.10;;
45887;SDS011;31595;51.418;7.572;2023-02-01T02:32:03;10.88;;;4.55;;
45887;SDS011;31595;51.418;7.572;2023-02-01T02:35:09;15.43;;;5.22;;
45887;SDS011;31595;51.418;7.572;2023-02-01T02:37:49;13.20;;;4.85;;
45887;SDS011;31595;51.418;7.572;2023-02-01T02:40:26;13.07;;;5.20;;
45887;SDS011;31595;51.418;7.572;2023-02-01T02:43:00;11.27;;;5.03;;
45887;SDS011;31595;51.418;7.572;2023-02-01T02:45:51;13.07;;;4.80;;
45887;SDS011;31595;51.418;7.572;2023-02-01T02:48:42;17.58;;;4.70;;
45887;SDS011;31595;51.418;7.572;2023-02-01T02:51:14;13.02;;;4.88;;
45887;SDS011;31595;51.418;7.572;2023-02-01T02:54:05;10.95;;;4.35;;
45887;SDS011;31595;51.418;7.572;2023-02-01T02:56:55;11.75;;;4.57;;
45887;SDS011;31595;51.418;7.572;2023-02-01T02:59:43;20.77;;;5.05;;
45887;SDS011;31595;51.418;7.572;2023-02-01T03:02:30;12.32;;;4.75;;
45887;SDS011;31595;51.418;7.572;2023-02-01T03:05:16;15.52;;;4.13;;
45887;SDS011;31595;51.418;7.572;2023-02-01T03:07:53;16.23;;;5.03;;
45887;SDS011;31595;51.418;7.572;2023-02-01T03:10:30;13.75;;;4.35;;
45887;SDS011;31595;51.418;7.572;2023-02-01T03:13:03;12.43;;;4.10;;
45887;SDS011;31595;51.418;7.572;2023-02-01T03:15:34;13.20;;;4.07;;
45887;SDS011;31595;51.418;7.572;2023-02-01T03:18:06;13.80;;;3.88;;
45887;SDS011;31595;51.418;7.572;2023-02-01T03:20:38;11.27;;;3.25;;
45887;SDS011;31595;51.418;7.572;2023-02-01T03:23:11;13.05;;;3.25;;
45887;SDS011;31595;51.418;7.572;2023-02-01T03:25:42;13.18;;;3.42;;
45887;SDS011;31595;51.418;7.572;2023-02-01T03:28:10;15.80;;;3.97;;
45887;SDS011;31595;51.418;7.572;2023-02-01T03:30:38;16.15;;;3.53;;
45887;SDS011;31595;51.418;7.572;2023-02-01T03:33:09;14.10;;;3.78;;
45887;SDS011;31595;51.418;7.572;2023-02-01T03:35:48;17.95;;;3.95;;
45887;SDS011;31595;51.418;7.572;2023-02-01T03:38:23;13.63;;;3.60;;
45887;SDS011;31595;51.418;7.572;2023-02-01T03:40:56;10.80;;;3.15;;
45887;SDS011;31595;51.418;7.572;2023-02-01T03:43:27;12.65;;;3.47;;
45887;SDS011;31595;51.418;7.572;2023-02-01T03:46:01;15.10;;;3.53;;
45887;SDS011;31595;51.418;7.572;2023-02-01T03:48:33;14.73;;;4.15;;
45887;SDS011;31595;51.418;7.572;2023-02-01T03:51:03;12.27;;;2.93;;
45887;SDS011;31595;51.418;7.572;2023-02-01T03:53:34;19.52;;;4.00;;
45887;SDS011;31595;51.418;7.572;2023-02-01T03:56:03;12.40;;;3.38;;
45887;SDS011;31595;51.418;7.572;2023-02-01T03:58:32;12.18;;;3.22;;
45887;SDS011;31595;51.418;7.572;2023-02-01T04:01:00;14.20;;;4.75;;
45887;SDS011;31595;51.418;7.572;2023-02-01T04:03:27;12.85;;;3.95;;
45887;SDS011;31595;51.418;7.572;2023-02-01T04:05:55;10.63;;;3.22;;
45887;SDS011;31595;51.418;7.572;2023-02-01T04:08:22;13.25;;;3.15;;
45887;SDS011;31595;51.418;7.572;2023-02-01T04:10:52;12.75;;;3.55;;
45887;SDS011;31595;51.418;7.572;2023-02-01T04:13:19;8.15;;;3.40;;
45887;SDS011;31595;51.418;7.572;2023-02-01T04:15:46;16.15;;;4.68;;
45887;SDS011;31595;51.418;7.572;2023-02-01T04:18:15;14.75;;;3.35;;
45887;SDS011;31595;51.418;7.572;2023-02-01T04:20:43;12.68;;;3.45;;
45887;SDS011;31595;51.418;7.572;2023-02-01T04:23:10;14.50;;;3.30;;
45887;SDS011;31595;51.418;7.572;2023-02-01T04:25:38;11.07;;;3.63;;
45887;SDS011;31595;51.418;7.572;2023-02-01T04:28:06;13.70;;;3.45;;
45887;SDS011;31595;51.418;7.572;2023-02-01T04:30:34;11.80;;;3.72;;
45887;SDS011;31595;51.418;7.572;2023-02-01T04:33:01;13.90;;;3.90;;
45887;SDS011;31595;51.418;7.572;2023-02-01T04:37:58;14.32;;;3.78;;
45887;SDS011;31595;51.418;7.572;2023-02-01T04:40:26;16.73;;;4.00;;
45887;SDS011;31595;51.418;7.572;2023-02-01T04:42:53;11.20;;;3.55;;
45887;SDS011;31595;51.418;7.572;2023-02-01T04:45:21;11.40;;;3.28;;
45887;SDS011;31595;51.418;7.572;2023-02-01T04:47:49;13.40;;;4.25;;
45887;SDS011;31595;51.418;7.572;2023-02-01T04:50:16;14.80;;;3.92;;
45887;SDS011;31595;51.418;7.572;2023-02-01T04:52:43;12.48;;;3.85;;
45887;SDS011;31595;51.418;7.572;2023-02-01T04:55:12;12.02;;;4.13;;
45887;SDS011;31595;51.418;7.572;2023-02-01T04:57:39;18.50;;;4.22;;
45887;SDS011;31595;51.418;7.572;2023-02-01T05:00:07;12.40;;;3.63;;
45887;SDS011;31595;51.418;7.572;2023-02-01T05:02:37;11.48;;;3.55;;
45887;SDS011;31595;51.418;7.572;2023-02-01T05:05:05;10.95;;;4.30;;
45887;SDS011;31595;51.418;7.572;2023-02-01T05:07:32;17.23;;;4.32;;
45887;SDS011;31595;51.418;7.572;2023-02-01T05:09:59;17.60;;;4.38;;
45887;SDS011;31595;51.418;7.572;2023-02-01T05:12:27;15.10;;;4.80;;
45887;SDS011;31595;51.418;7.572;2023-02-01T05:15:11;17.67;;;4.68;;
45887;SDS011;31595;51.418;7.572;2023-02-01T05:17:40;20.00;;;4.88;;
45887;SDS011;31595;51.418;7.572;2023-02-01T05:20:08;14.38;;;4.60;;
45887;SDS011;31595;51.418;7.572;2023-02-01T05:22:36;18.88;;;5.15;;
45887;SDS011;31595;51.418;7.572;2023-02-01T05:25:03;14.88;;;4.43;;
45887;SDS011;31595;51.418;7.572;2023-02-01T05:27:31;20.05;;;5.38;;
45887;SDS011;31595;51.418;7.572;2023-02-01T05:29:58;13.35;;;4.03;;
45887;SDS011;31595;51.418;7.572;2023-02-01T05:32:25;13.82;;;4.55;;
45887;SDS011;31595;51.418;7.572;2023-02-01T05:34:54;15.20;;;4.40;;
45887;SDS011;31595;51.418;7.572;2023-02-01T05:37:21;16.65;;;5.15;;
45887;SDS011;31595;51.418;7.572;2023-02-01T05:39:48;12.88;;;4.10;;
45887;SDS011;31595;51.418;7.572;2023-02-01T05:42:16;14.68;;;4.13;;
45887;SDS011;31595;51.418;7.572;2023-02-01T05:44:43;16.65;;;4.43;;
45887;SDS011;31595;51.418;7.572;2023-02-01T05:47:11;12.15;;;4.00;;
45887;SDS011;31595;51.418;7.572;2023-02-01T05:49:38;15.95;;;4.60;;
45887;SDS011;31595;51.418;7.572;2023-02-01T05:52:07;17.95;;;4.43;;
45887;SDS011;31595;51.418;7.572;2023-02-01T05:54:34;14.07;;;4.40;;
45887;SDS011;31595;51.418;7.572;2023-02-01T05:57:01;16.25;;;4.70;;
45887;SDS011;31595;51.418;7.572;2023-02-01T05:59:29;15.32;;;4.53;;
45887;SDS011;31595;51.418;7.572;2023-02-01T06:01:56;15.80;;;4.15;;
45887;SDS011;31595;51.418;7.572;2023-02-01T06:04:23;15.20;;;4.10;;
45887;SDS011;31595;51.418;7.572;2023-02-01T06:06:51;17.13;;;4.32;;
45887;SDS011;31595;51.418;7.572;2023-02-01T06:09:20;12.48;;;3.72;;
45887;SDS011;31595;51.418;7.572;2023-02-01T06:11:47;15.63;;;4.30;;
45887;SDS011;31595;51.418;7.572;2023-02-01T06:14:14;14.32;;;4.22;;
45887;SDS011;31595;51.418;7.572;2023-02-01T06:16:41;14.63;;;4.03;;
45887;SDS011;31595;51.418;7.572;2023-02-01T06:19:11;18.42;;;4.53;;
45887;SDS011;31595;51.418;7.572;2023-02-01T06:21:38;13.63;;;4.13;;
45887;SDS011;31595;51.418;7.572;2023-02-01T06:24:05;11.77;;;4.30;;
45887;SDS011;31595;51.418;7.572;2023-02-01T06:26:34;13.15;;;4.55;;
45887;SDS011;31595;51.418;7.572;2023-02-01T06:29:01;16.85;;;4.90;;
45887;SDS011;31595;51.418;7.572;2023-02-01T06:31:29;19.52;;;4.75;;
45887;SDS011;31595;51.418;7.572;2023-02-01T06:33:57;15.30;;;4.68;;
45887;SDS011;31595;51.418;7.572;2023-02-01T06:36:24;21.85;;;5.13;;
45887;SDS011;31595;51.418;7.572;2023-02-01T06:38:52;15.73;;;4.22;;
45887;SDS011;31595;51.418;7.572;2023-02-01T06:41:22;17.00;;;4.85;;
45887;SDS011;31595;51.418;7.572;2023-02-01T06:43:51;14.77;;;4.80;;
45887;SDS011;31595;51.418;7.572;2023-02-01T06:46:18;19.20;;;5.88;;
45887;SDS011;31595;51.418;7.572;2023-02-01T06:48:48;13.57;;;4.90;;
45887;SDS011;31595;51.418;7.572;2023-02-01T06:51:23;17.95;;;4.95;;
45887;SDS011;31595;51.418;7.572;2023-02-01T06:53:52;17.75;;;5.10;;
45887;SDS011;31595;51.418;7.572;2023-02-01T06:56:19;15.00;;;4.63;;
45887;SDS011;31595;51.418;7.572;2023-02-01T06:58:47;14.25;;;4.45;;
45887;SDS011;31595;51.418;7.572;2023-02-01T07:01:16;14.15;;;5.22;;
45887;SDS011;31595;51.418;7.572;2023-02-01T07:03:46;16.15;;;4.57;;
45887;SDS011;31595;51.418;7.572;2023-02-01T07:06:14;13.10;;;4.10;;
45887;SDS011;31595;51.418;7.572;2023-02-01T07:08:41;18.45;;;4.85;;
45887;SDS011;31595;51.418;7.572;2023-02-01T07:11:09;13.63;;;4.20;;
45887;SDS011;31595;51.418;7.572;2023-02-01T07:13:37;11.98;;;3.70;;
45887;SDS011;31595;51.418;7.572;2023-02-01T07:16:06;15.18;;;4.50;;
45887;SDS011;31595;51.418;7.572;2023-02-01T07:18:37;12.38;;;4.22;;
45887;SDS011;31595;51.418;7.572;2023-02-01T07:21:04;17.52;;;4.50;;
45887;SDS011;31595;51.418;7.572;2023-02-01T07:23:32;13.95;;;4.15;;
45887;SDS011;31595;51.418;7.572;2023-02-01T07:26:00;16.92;;;5.60;;
45887;SDS011;31595;51.418;7.572;2023-02-01T07:28:29;12.13;;;4.25;;
45887;SDS011;31595;51.418;7.572;2023-02-01T07:31:01;13.02;;;4.00;;
45887;SDS011;31595;51.418;7.572;2023-02-01T07:33:29;13.38;;;4.07;;
45887;SDS011;31595;51.418;7.572;2023-02-01T07:35:59;14.27;;;4.22;;
45887;SDS011;31595;51.418;7.572;2023-02-01T07:38:28;12.48;;;4.57;;
45887;SDS011;31595;51.418;7.572;2023-02-01T07:40:58;17.13;;;4.82;;
45887;SDS011;31595;51.418;7.572;2023-02-01T07:43:26;18.75;;;3.97;;
45887;SDS011;31595;51.418;7.572;2023-02-01T07:45:54;13.35;;;4.25;;
45887;SDS011;31595;51.418;7.572;2023-02-01T07:48:22;15.82;;;4.15;;
45887;SDS011;31595;51.418;7.572;2023-02-01T07:50:56;15.65;;;4.88;;
45887;SDS011;31595;51.418;7.572;2023-02-01T07:53:25;13.93;;;4.70;;
45887;SDS011;31595;51.418;7.572;2023-02-01T07:55:52;13.27;;;4.28;;
45887;SDS011;31595;51.418;7.572;2023-02-01T07:58:21;16.83;;;5.13;;
45887;SDS011;31595;51.418;7.572;2023-02-01T08:00:48;13.35;;;5.03;;
45887;SDS011;31595;51.418;7.572;2023-02-01T08:03:33;19.33;;;5.07;;
45887;SDS011;31595;51.418;7.572;2023-02-01T08:06:00;14.77;;;4.53;;
45887;SDS011;31595;51.418;7.572;2023-02-01T08:08:29;11.85;;;3.95;;
45887;SDS011;31595;51.418;7.572;2023-02-01T08:10:57;21.38;;;4.85;;
45887;SDS011;31595;51.418;7.572;2023-02-01T08:13:24;15.13;;;4.85;;
45887;SDS011;31595;51.418;7.572;2023-02-01T08:15:52;18.85;;;4.93;;
45887;SDS011;31595;51.418;7.572;2023-02-01T08:18:19;15.55;;;5.00;;
45887;SDS011;31595;51.418;7.572;2023-02-01T08:20:46;14.32;;;5.07;;
45887;SDS011;31595;51.418;7.572;2023-02-01T08:23:13;12.82;;;5.38;;
45887;SDS011;31595;51.418;7.572;2023-02-01T08:25:42;15.43;;;4.82;;
45887;SDS011;31595;51.418;7.572;2023-02-01T08:28:10;14.57;;;5.05;;
45887;SDS011;31595;51.418;7.572;2023-02-01T08:30:37;14.95;;;5.07;;
45887;SDS011;31595;51.418;7.572;2023-02-01T08:33:05;15.00;;;5.68;;
45887;SDS011;31595;51.418;7.572;2023-02-01T08:35:34;16.75;;;5.53;;
45887;SDS011;31595;51.418;7.572;2023-02-01T08:38:02;16.50;;;5.38;;
45887;SDS011;31595;51.418;7.572;2023-02-01T08:40:30;11.20;;;5.03;;
45887;SDS011;31595;51.418;7.572;2023-02-01T08:42:58;15.13;;;4.40;;
45887;SDS011;31595;51.418;7.572;2023-02-01T08:45:27;18.00;;;5.78;;
45887;SDS011;31595;51.418;7.572;2023-02-01T08:47:56;18.33;;;5.20;;
45887;SDS011;31595;51.418;7.572;2023-02-01T08:50:24;17.58;;;5.05;;
45887;SDS011;31595;51.418;7.572;2023-02-01T08:52:51;20.52;;;6.80;;
45887;SDS011;31595;51.418;7.572;2023-02-01T08:55:19;20.63;;;4.93;;
45887;SDS011;31595;51.418;7.572;2023-02-01T08:57:47;15.57;;;5.68;;
45887;SDS011;31595;51.418;7.572;2023-02-01T09:00:16;17.25;;;5.45;;
45887;SDS011;31595;51.418;7.572;2023-02-01T09:02:44;14.55;;;5.50;;
45887;SDS011;31595;51.418;7.572;2023-02-01T09:05:12;14.05;;;5.65;;
45887;SDS011;31595;51.418;7.572;2023-02-01T09:07:39;11.88;;;4.85;;
45887;SDS011;31595;51.418;7.572;2023-02-01T09:10:07;16.38;;;5.45;;
45887;SDS011;31595;51.418;7.572;2023-02-01T09:12:35;11.85;;;4.95;;
45887;SDS011;31595;51.418;7.572;2023-02-01T09:15:03;17.90;;;6.43;;
45887;SDS011;31595;51.418;7.572;2023-02-01T09:17:34;14.23;;;6.05;;
45887;SDS011;31595;51.418;7.572;2023-02-01T09:20:01;14.77;;;5.10;;
45887;SDS011;31595;51.418;7.572;2023-02-01T09:22:29;18.30;;;5.75;;
45887;SDS011;31595;51.418;7.572;2023-02-01T09:24:56;17.38;;;6.15;;
45887;SDS011;31595;51.418;7.572;2023-02-01T09:27:24;15.02;;;4.90;;
45887;SDS011;31595;51.418;7.572;2023-02-01T09:29:51;18.63;;;6.13;;
45887;SDS011;31595;51.418;7.572;2023-02-01T09:32:19;12.68;;;5.85;;
45887;SDS011;31595;51.418;7.572;2023-02-01T09:34:47;15.90;;;4.90;;
45887;SDS011;31595;51.418;7.572;2023-02-01T09:37:15;19.63;;;6.03;;
45887;SDS011;31595;51.418;7.572;2023-02-01T09:39:43;14.70;;;4.93;;
45887;SDS011;31595;51.418;7.572;2023-02-01T09:45:14;13.77;;;4.85;;
45887;SDS011;31595;51.418;7.572;2023-02-01T09:50:19;15.40;;;5.35;;
45887;SDS011;31595;51.418;7.572;2023-02-01T09:52:52;15.15;;;5.72;;
45887;SDS011;31595;51.418;7.572;2023-02-01T09:55:27;12.48;;;5.68;;
45887;SDS011;31595;51.418;7.572;2023-02-01T09:58:02;12.30;;;5.22;;
45887;SDS011;31595;51.418;7.572;2023-02-01T10:00:34;19.10;;;6.45;;
45887;SDS011;31595;51.418;7.572;2023-02-01T10:03:03;13.45;;;5.60;;
45887;SDS011;31595;51.418;7.572;2023-02-01T10:05:39;19.85;;;5.75;;
45887;SDS011;31595;51.418;7.572;2023-02-01T10:08:19;15.32;;;5.93;;
45887;SDS011;31595;51.418;7.572;2023-02-01T10:10:58;16.03;;;5.30;;
45887;SDS011;31595;51.418;7.572;2023-02-01T10:13:44;15.30;;;5.30;;
45887;SDS011;31595;51.418;7.572;2023-02-01T10:16:22;13.20;;;5.93;;
45887;SDS011;31595;51.418;7.572;2023-02-01T10:19:01;13.27;;;5.10;;
45887;SDS011;31595;51.418;7.572;2023-02-01T10:21:43;19.02;;;5.50;;
45887;SDS011;31595;51.418;7.572;2023-02-01T10:24:20;16.40;;;5.57;;
45887;SDS011;31595;51.418;7.572;2023-02-01T10:27:10;14.20;;;5.53;;
45887;SDS011;31595;51.418;7.572;2023-02-01T10:29:40;12.02;;;5.05;;
45887;SDS011;31595;51.418;7.572;2023-02-01T10:32:13;14.10;;;6.00;;
45887;SDS011;31595;51.418;7.572;2023-02-01T10:34:42;12.10;;;5.00;;
45887;SDS011;31595;51.418;7.572;2023-02-01T10:37:18;14.10;;;5.28;;
45887;SDS011;31595;51.418;7.572;2023-02-01T10:39:53;12.52;;;4.93;;
45887;SDS011;31595;51.418;7.572;2023-02-01T10:44:51;10.73;;;4.75;;
45887;SDS011;31595;51.418;7.572;2023-02-01T10:47:21;12.95;;;4.85;;
45887;SDS011;31595;51.418;7.572;2023-02-01T10:49:49;14.52;;;5.75;;
45887;SDS011;31595;51.418;7.572;2023-02-01T10:52:25;14.07;;;4.68;;
45887;SDS011;31595;51.418;7.572;2023-02-01T11:00:28;15.25;;;4.70;;
45887;SDS011;31595;51.418;7.572;2023-02-01T11:03:00;16.58;;;4.53;;
45887;SDS011;31595;51.418;7.572;2023-02-01T11:05:46;14.20;;;4.40;;
45887;SDS011;31595;51.418;7.572;2023-02-01T11:08:17;14.48;;;5.07;;
45887;SDS011;31595;51.418;7.572;2023-02-01T11:10:46;11.23;;;4.57;;
45887;SDS011;31595;51.418;7.572;2023-02-01T11:13:14;13.05;;;4.80;;
45887;SDS011;31595;51.418;7.572;2023-02-01T11:15:43;12.68;;;4.63;;
45887;SDS011;31595;51.418;7.572;2023-02-01T11:18:16;13.48;;;5.45;;
45887;SDS011;31595;51.418;7.572;2023-02-01T11:20:45;12.85;;;5.55;;
45887;SDS011;31595;51.418;7.572;2023-02-01T11:23:19;21.50;;;6.97;;
45887;SDS011;31595;51.418;7.572;2023-02-01T11:25:51;14.55;;;5.70;;
45887;SDS011;31595;51.418;7.572;2023-02-01T11:28:20;11.13;;;5.20;;
45887;SDS011;31595;51.418;7.572;2023-02-01T11:30:50;15.82;;;5.95;;
45887;SDS011;31595;51.418;7.572;2023-02-01T11:35:50;10.80;;;4.97;;
45887;SDS011;31595;51.418;7.572;2023-02-01T11:38:21;17.38;;;5.43;;
45887;SDS011;31595;51.418;7.572;2023-02-01T11:40:53;15.32;;;5.10;;
45887;SDS011;31595;51.418;7.572;2023-02-01T11:43:22;13.30;;;4.47;;
45887;SDS011;31595;51.418;7.572;2023-02-01T11:45:54;12.23;;;4.70;;
45887;SDS011;31595;51.418;7.572;2023-02-01T11:48:24;15.32;;;4.63;;
45887;SDS011;31595;51.418;7.572;2023-02-01T11:50:56;15.07;;;4.53;;
45887;SDS011;31595;51.418;7.572;2023-02-01T11:53:36;12.30;;;4.53;;
45887;SDS011;31595;51.418;7.572;2023-02-01T11:56:16;11.10;;;4.10;;
45887;SDS011;31595;51.418;7.572;2023-02-01T11:58:53;13.63;;;4.40;;
45887;SDS011;31595;51.418;7.572;2023-02-01T12:04:40;13.80;;;4.03;;
45887;SDS011;31595;51.418;7.572;2023-02-01T12:07:28;12.88;;;4.13;;
45887;SDS011;31595;51.418;7.572;2023-02-01T12:10:16;17.38;;;4.28;;
45887;SDS011;31595;51.418;7.572;2023-02-01T12:12:53;12.85;;;4.57;;
45887;SDS011;31595;51.418;7.572;2023-02-01T12:15:36;20.60;;;7.53;;
45887;SDS011;31595;51.418;7.572;2023-02-01T12:21:18;12.68;;;5.70;;
45887;SDS011;31595;51.418;7.572;2023-02-01T12:24:20;10.43;;;4.53;;
45887;SDS011;31595;51.418;7.572;2023-02-01T12:27:32;17.63;;;5.50;;
45887;SDS011;31595;51.418;7.572;2023-02-01T12:30:19;15.95;;;4.57;;
45887;SDS011;31595;51.418;7.572;2023-02-01T12:33:07;16.70;;;5.40;;
45887;SDS011;31595;51.418;7.572;2023-02-01T12:35:49;11.93;;;4.30;;
45887;SDS011;31595;51.418;7.572;2023-02-01T12:38:39;14.77;;;4.60;;
45887;SDS011;31595;51.418;7.572;2023-02-01T12:41:17;14.68;;;5.32;;
45887;SDS011;31595;51.418;7.572;2023-02-01T12:44:01;11.68;;;4.70;;
45887;SDS011;31595;51.418;7.572;2023-02-01T12:46:35;13.98;;;4.30;;
45887;SDS011;31595;51.418;7.572;2023-02-01T12:49:10;14.48;;;4.60;;
45887;SDS011;31595;51.418;7.572;2023-02-01T12:51:43;14.98;;;4.75;;
45887;SDS011;31595;51.418;7.572;2023-02-01T12:54:13;14.98;;;4.70;;
45887;SDS011;31595;51.418;7.572;2023-02-01T12:56:46;13.13;;;4.53;;
45887;SDS011;31595;51.418;7.572;2023-02-01T12:59:19;17.63;;;5.07;;
45887;SDS011;31595;51.418;7.572;2023-02-01T13:01:53;18.90;;;5.30;;
45887;SDS011;31595;51.418;7.572;2023-02-01T13:04:29;16.00;;;5.18;;
45887;SDS011;31595;51.418;7.572;2023-02-01T13:07:03;17.65;;;5.30;;
45887;SDS011;31595;51.418;7.572;2023-02-01T13:09:38;16.55;;;5.00;;
45887;SDS011;31595;51.418;7.572;2023-02-01T13:12:12;15.02;;;4.93;;
45887;SDS011;31595;51.418;7.572;2023-02-01T13:14:46;11.65;;;4.45;;
45887;SDS011;31595;51.418;7.572;2023-02-01T13:17:19;10.02;;;4.03;;
45887;SDS011;31595;51.418;7.572;2023-02-01T13:19:51;12.05;;;4.50;;
45887;SDS011;31595;51.418;7.572;2023-02-01T13:22:23;11.48;;;4.43;;
45887;SDS011;31595;51.418;7.572;2023-02-01T13:24:56;18.17;;;5.03;;
45887;SDS011;31595;51.418;7.572;2023-02-01T13:27:26;12.80;;;4.63;;
45887;SDS011;31595;51.418;7.572;2023-02-01T13:29:58;14.32;;;4.50;;
45887;SDS011;31595;51.418;7.572;2023-02-01T13:32:31;15.80;;;5.55;;
45887;SDS011;31595;51.418;7.572;2023-02-01T13:35:23;13.10;;;4.10;;
45887;SDS011;31595;51.418;7.572;2023-02-01T13:38:04;15.88;;;5.05;;
45887;SDS011;31595;51.418;7.572;2023-02-01T13:40:50;11.80;;;4.53;;
45887;SDS011;31595;51.418;7.572;2023-02-01T13:43:26;12.52;;;4.32;;
45887;SDS011;31595;51.418;7.572;2023-02-01T13:46:05;13.27;;;4.30;;
45887;SDS011;31595;51.418;7.572;2023-02-01T13:48:36;15.90;;;5.07;;
45887;SDS011;31595;51.418;7.572;2023-02-01T13:51:08;14.10;;;4.55;;
45887;SDS011;31595;51.418;7.572;2023-02-01T13:53:35;14.40;;;4.45;;
45887;SDS011;31595;51.418;7.572;2023-02-01T13:56:06;12.93;;;4.40;;
45887;SDS011;31595;51.418;7.572;2023-02-01T13:58:38;14.10;;;4.82;;
45887;SDS011;31595;51.418;7.572;2023-02-01T14:04:02;14.65;;;4.90;;
45887;SDS011;31595;51.418;7.572;2023-02-01T14:06:36;15.18;;;5.65;;
45887;SDS011;31595;51.418;7.572;2023-02-01T14:09:17;15.75;;;4.20;;
45887;SDS011;31595;51.418;7.572;2023-02-01T14:11:57;14.07;;;4.20;;
45887;SDS011;31595;51.418;7.572;2023-02-01T14:23:25;10.45;;;3.58;;
45887;SDS011;31595;51.418;7.572;2023-02-01T14:28:58;12.85;;;4.22;;
45887;SDS011;31595;51.418;7.572;2023-02-01T14:31:32;13.38;;;4.07;;
45887;SDS011;31595;51.418;7.572;2023-02-01T14:34:16;13.80;;;4.07;;
45887;SDS011;31595;51.418;7.572;2023-02-01T14:36:48;15.32;;;4.05;;
45887;SDS011;31595;51.418;7.572;2023-02-01T14:39:19;15.82;;;5.00;;
45887;SDS011;31595;51.418;7.572;2023-02-01T14:41:54;14.45;;;4.30;;
45887;SDS011;31595;51.418;7.572;2023-02-01T14:44:25;15.38;;;4.40;;
45887;SDS011;31595;51.418;7.572;2023-02-01T14:47:07;10.38;;;3.70;;
45887;SDS011;31595;51.418;7.572;2023-02-01T14:49:55;13.60;;;4.43;;
45887;SDS011;31595;51.418;7.572;2023-02-01T14:52:30;16.63;;;4.20;;
45887;SDS011;31595;51.418;7.572;2023-02-01T14:55:02;12.90;;;4.10;;
45887;SDS011;31595;51.418;7.572;2023-02-01T14:57:33;8.45;;;3.22;;
45887;SDS011;31595;51.418;7.572;2023-02-01T15:00:07;16.23;;;4.25;;
45887;SDS011;31595;51.418;7.572;2023-02-01T15:02:43;13.13;;;4.13;;
45887;SDS011;31595;51.418;7.572;2023-02-01T15:05:27;17.80;;;4.10;;
45887;SDS011;31595;51.418;7.572;2023-02-01T15:07:57;14.38;;;3.47;;
45887;SDS011;31595;51.418;7.572;2023-02-01T15:10:30;15.45;;;4.00;;
45887;SDS011;31595;51.418;7.572;2023-02-01T15:13:00;14.30;;;3.83;;
45887;SDS011;31595;51.418;7.572;2023-02-01T15:15:27;10.82;;;3.88;;
45887;SDS011;31595;51.418;7.572;2023-02-01T15:17:59;16.80;;;4.07;;
45887;SDS011;31595;51.418;7.572;2023-02-01T15:20:28;12.00;;;3.72;;
45887;SDS011;31595;51.418;7.572;2023-02-01T15:22:57;12.70;;;3.80;;
45887;SDS011;31595;51.418;7.572;2023-02-01T15:25:27;11.20;;;3.63;;
45887;SDS011;31595;51.418;7.572;2023-02-01T15:27:55;12.50;;;2.90;;
45887;SDS011;31595;51.418;7.572;2023-02-01T15:30:26;11.48;;;3.75;;
45887;SDS011;31595;51.418;7.572;2023-02-01T15:33:04;17.80;;;4.25;;
45887;SDS011;31595;51.418;7.572;2023-02-01T15:35:36;11.95;;;3.83;;
45887;SDS011;31595;51.418;7.572;2023-02-01T15:41:10;15.93;;;3.78;;
45887;SDS011;31595;51.418;7.572;2023-02-01T15:43:40;15.30;;;4.03;;
45887;SDS011;31595;51.418;7.572;2023-02-01T15:46:12;15.48;;;4.32;;
45887;SDS011;31595;51.418;7.572;2023-02-01T15:48:43;15.57;;;3.85;;
45887;SDS011;31595;51.418;7.572;2023-02-01T15:51:15;11.50;;;3.30;;